Time;durP1;ratioP1;P1;durP2;ratioP2;P2;SDS_P1;SDS_P2;PMS_P1;PMS_P2;Temp;Humidity;BMP_temperature;BMP_pressure;BME280_temperature;BME280_humidity;BME280_pressure;Samples;Min_cycle;Max_cycle;Signal;HPM_P1;HPM_P2
2021/11/21 00:02:23;;;;;;;51.37;25.43;;;9.80;99.90;;;;;;8377858;28;20237;-79
2021/11/21 00:06:24;;;;;;;52.40;24.70;;;9.80;99.90;;;;;;8366282;28;20229;-79
2021/11/21 00:10:25;;;;;;;50.73;21.70;;;9.90;99.90;;;;;;8374967;28;20908;-78
2021/11/21 00:14:26;;;;;;;60.60;20.33;;;9.90;99.90;;;;;;8376130;28;20190;-78
2021/11/21 00:18:26;;;;;;;47.67;24.40;;;9.90;99.90;;;;;;8379119;28;20725;-78
2021/11/21 00:22:29;;;;;;;49.60;21.63;;;9.90;99.90;;;;;;8358757;28;20211;-77
2021/11/21 00:26:29;;;;;;;53.10;21.03;;;9.90;99.90;;;;;;8394013;28;20179;-77
2021/11/21 00:30:30;;;;;;;55.00;22.60;;;9.90;99.90;;;;;;8382627;28;21006;-78
2021/11/21 00:34:31;;;;;;;49.47;22.57;;;9.90;99.90;;;;;;8385121;28;20266;-77
2021/11/21 00:38:32;;;;;;;40.37;19.13;;;9.90;99.90;;;;;;8382134;28;20191;-77
2021/11/21 00:42:33;;;;;;;46.27;19.40;;;9.90;99.90;;;;;;8379512;28;20480;-77
2021/11/21 00:46:34;;;;;;;31.43;15.40;;;9.90;99.90;;;;;;8362326;28;20463;-78
2021/11/21 00:50:35;;;;;;;32.47;14.97;;;9.80;99.90;;;;;;8375319;28;21792;-78
2021/11/21 00:54:46;;;;;;;22.83;12.73;;;9.80;99.90;;;;;;8379013;28;20472;-78
2021/11/21 00:58:47;;;;;;;19.13;10.10;;;9.80;99.80;;;;;;8370642;28;20445;-77
2021/11/21 01:02:48;;;;;;;22.87;10.50;;;9.90;99.60;;;;;;8379927;28;20988;-78
2021/11/21 01:06:48;;;;;;;20.10;11.13;;;9.90;99.40;;;;;;8386036;28;20558;-78
2021/11/21 01:10:53;;;;;;;13.47;9.10;;;10.00;99.20;;;;;;8373360;28;20199;-79
2021/11/21 01:14:53;;;;;;;14.33;7.80;;;10.00;99.10;;;;;;8385856;28;20258;-76
2021/11/21 01:18:54;;;;;;;11.63;8.10;;;10.10;98.90;;;;;;8385612;28;20490;-77
2021/11/21 01:22:55;;;;;;;17.67;7.90;;;10.10;98.70;;;;;;8368332;28;20219;-77
2021/11/21 01:26:56;;;;;;;14.43;6.53;;;10.10;98.40;;;;;;8369391;28;20270;-77
2021/11/21 01:30:56;;;;;;;7.63;5.40;;;10.10;98.30;;;;;;8383054;28;20459;-77
2021/11/21 01:34:57;;;;;;;10.17;7.40;;;10.10;98.10;;;;;;8369211;28;20193;-78
2021/11/21 01:38:58;;;;;;;9.30;4.70;;;10.10;97.90;;;;;;8371570;28;20262;-78
2021/11/21 01:42:59;;;;;;;8.63;5.50;;;10.10;97.80;;;;;;8385146;28;20363;-78
2021/11/21 01:47:00;;;;;;;9.23;5.23;;;10.20;97.60;;;;;;8389462;28;20195;-77
2021/11/21 01:51:05;;;;;;;7.10;4.93;;;10.20;97.50;;;;;;8386550;28;20590;-77
2021/11/21 01:55:07;;;;;;;13.13;4.87;;;10.20;97.40;;;;;;8387258;28;20273;-78
2021/11/21 01:59:08;;;;;;;5.80;4.30;;;10.20;97.40;;;;;;8367559;28;20908;-77
2021/11/21 02:03:09;;;;;;;8.30;5.40;;;10.20;97.40;;;;;;8358919;28;20571;-77
2021/11/21 02:07:10;;;;;;;7.63;4.83;;;10.20;97.30;;;;;;8379645;28;20487;-78
2021/11/21 02:11:10;;;;;;;11.20;6.10;;;10.20;97.20;;;;;;8385080;28;20190;-78
2021/11/21 02:15:13;;;;;;;8.57;4.97;;;10.20;97.20;;;;;;8390565;28;20183;-77
2021/11/21 02:19:17;;;;;;;11.50;4.67;;;10.20;97.30;;;;;;8381397;28;20284;-78
2021/11/21 02:23:20;;;;;;;6.83;5.20;;;10.20;97.20;;;;;;8387246;28;20472;-77
2021/11/21 02:27:27;;;;;;;8.33;4.77;;;10.20;97.10;;;;;;8377753;28;20949;-77
2021/11/21 02:31:29;;;;;;;6.63;4.30;;;10.20;97.10;;;;;;8384135;28;20994;-77
2021/11/21 02:35:29;;;;;;;7.93;5.50;;;10.20;97.10;;;;;;8361371;28;20468;-79
2021/11/21 02:39:30;;;;;;;6.63;4.80;;;10.20;97.00;;;;;;8376257;28;20447;-77
2021/11/21 02:43:31;;;;;;;7.33;4.00;;;10.20;97.00;;;;;;8365076;28;20206;-78
2021/11/21 02:47:32;;;;;;;10.60;4.37;;;10.20;97.00;;;;;;8381447;28;20187;-78
2021/11/21 02:51:33;;;;;;;9.73;4.73;;;10.20;96.90;;;;;;8361887;28;20487;-78
2021/11/21 02:55:34;;;;;;;6.07;4.17;;;10.20;97.00;;;;;;8366745;28;20440;-78
2021/11/21 02:59:35;;;;;;;7.10;4.00;;;10.20;96.90;;;;;;8380536;28;20200;-78
2021/11/21 03:03:36;;;;;;;6.23;4.17;;;10.20;96.90;;;;;;8366126;28;20529;-78
2021/11/21 03:07:37;;;;;;;5.67;4.13;;;10.30;96.90;;;;;;8376426;28;20228;-77
2021/11/21 03:11:38;;;;;;;5.73;4.33;;;10.30;96.90;;;;;;8380516;28;20473;-77
2021/11/21 03:15:39;;;;;;;9.27;5.07;;;10.30;96.90;;;;;;8364711;28;20444;-77
2021/11/21 03:19:39;;;;;;;6.30;3.90;;;10.30;96.80;;;;;;8366593;28;20694;-77
2021/11/21 03:23:41;;;;;;;5.70;4.53;;;10.30;96.80;;;;;;8363205;28;20468;-76
2021/11/21 03:27:42;;;;;;;8.40;3.70;;;10.40;96.90;;;;;;8378991;28;20714;-76
2021/11/21 03:31:43;;;;;;;6.00;4.27;;;10.40;96.90;;;;;;8359820;28;20444;-76
2021/11/21 03:35:43;;;;;;;6.90;4.20;;;10.40;97.10;;;;;;8372987;28;20444;-78
2021/11/21 03:39:44;;;;;;;9.27;5.00;;;10.40;97.40;;;;;;8365794;28;20190;-78
2021/11/21 03:43:45;;;;;;;7.70;4.53;;;10.30;97.40;;;;;;8386822;28;20690;-78
2021/11/21 03:47:47;;;;;;;10.43;4.90;;;10.30;97.60;;;;;;8375256;28;20760;-78
2021/11/21 03:51:48;;;;;;;6.30;4.23;;;10.30;97.70;;;;;;8389507;28;20209;-77
2021/11/21 03:55:48;;;;;;;10.07;5.07;;;10.30;98.00;;;;;;8387225;28;20543;-78
2021/11/21 03:59:49;;;;;;;6.53;4.13;;;10.20;98.20;;;;;;8387607;28;20444;-77
2021/11/21 04:03:50;;;;;;;17.47;3.93;;;10.20;98.40;;;;;;8384338;28;20244;-77
2021/11/21 04:07:50;;;;;;;8.13;4.67;;;10.20;98.50;;;;;;8391683;28;20255;-78
2021/11/21 04:11:52;;;;;;;8.00;4.50;;;10.10;98.60;;;;;;8397463;28;20456;-78
2021/11/21 04:15:52;;;;;;;10.73;5.27;;;10.10;98.60;;;;;;8409453;28;20194;-78
2021/11/21 04:19:54;;;;;;;9.63;5.57;;;10.10;98.70;;;;;;8377661;28;20456;-77
2021/11/21 04:23:54;;;;;;;8.17;4.17;;;10.00;98.80;;;;;;8366963;28;20252;-77
2021/11/21 04:27:55;;;;;;;10.27;4.77;;;10.00;98.90;;;;;;8391850;28;20449;-79
2021/11/21 04:31:56;;;;;;;12.17;5.00;;;10.00;98.90;;;;;;8391945;28;20179;-78
2021/11/21 04:35:57;;;;;;;8.03;4.70;;;10.10;98.90;;;;;;8385615;28;20185;-77
2021/11/21 04:39:57;;;;;;;7.83;3.80;;;10.10;98.90;;;;;;8395736;28;20198;-77
2021/11/21 04:43:58;;;;;;;12.80;5.70;;;10.10;99.10;;;;;;8396092;28;20218;-77
2021/11/21 04:47:59;;;;;;;11.17;5.80;;;10.10;99.30;;;;;;8380415;28;20218;-77
2021/11/21 04:52:00;;;;;;;14.37;5.00;;;10.10;99.50;;;;;;8383265;28;20179;-77
2021/11/21 04:56:00;;;;;;;10.90;6.33;;;10.10;99.70;;;;;;8368322;28;20494;-78
2021/11/21 05:00:01;;;;;;;12.33;6.93;;;10.10;99.80;;;;;;8364403;28;20187;-77
2021/11/21 05:04:02;;;;;;;15.63;8.43;;;10.10;99.90;;;;;;8365805;28;20222;-79
2021/11/21 05:08:04;;;;;;;18.20;7.20;;;10.00;99.90;;;;;;8385137;28;20439;-78
2021/11/21 05:12:05;;;;;;;11.90;5.90;;;10.00;99.90;;;;;;8369931;28;20187;-78
2021/11/21 05:16:06;;;;;;;12.53;6.60;;;9.90;99.90;;;;;;8362466;28;20447;-78
2021/11/21 05:20:07;;;;;;;13.40;6.23;;;9.90;99.90;;;;;;8383414;28;20444;-77
2021/11/21 05:24:08;;;;;;;12.73;6.70;;;9.90;99.90;;;;;;8385737;28;20751;-78
2021/11/21 05:28:09;;;;;;;11.30;5.77;;;10.00;99.90;;;;;;8385061;28;20444;-77
2021/11/21 05:32:10;;;;;;;15.27;7.00;;;10.00;99.90;;;;;;8369393;28;20773;-78
2021/11/21 05:36:10;;;;;;;15.63;6.47;;;10.00;99.90;;;;;;8378701;28;20186;-77
2021/11/21 05:40:12;;;;;;;14.37;7.23;;;9.90;99.90;;;;;;8363010;28;20278;-77
2021/11/21 05:44:14;;;;;;;12.70;6.93;;;9.90;99.90;;;;;;8362798;28;20267;-78
2021/11/21 05:48:15;;;;;;;12.67;5.40;;;9.90;99.90;;;;;;8382895;28;20497;-78
2021/11/21 05:52:15;;;;;;;12.10;5.13;;;9.90;99.90;;;;;;8386172;28;20501;-78
2021/11/21 05:56:16;;;;;;;15.90;6.90;;;9.80;99.90;;;;;;8365090;28;20178;-77
2021/11/21 06:00:20;;;;;;;9.07;6.40;;;9.80;99.90;;;;;;8368460;28;20190;-77
2021/11/21 06:04:21;;;;;;;18.00;5.97;;;9.80;99.90;;;;;;8380407;28;20870;-77
2021/11/21 06:08:21;;;;;;;10.17;6.30;;;9.80;99.90;;;;;;8379891;28;20440;-78
2021/11/21 06:12:22;;;;;;;10.30;7.27;;;9.80;99.90;;;;;;8369640;28;20293;-77
2021/11/21 06:16:22;;;;;;;9.53;4.53;;;9.80;99.90;;;;;;8373720;28;20634;-77
2021/11/21 06:20:23;;;;;;;9.27;3.90;;;9.90;99.90;;;;;;8367334;28;20244;-78
2021/11/21 06:24:23;;;;;;;10.43;4.43;;;9.90;99.90;;;;;;8378867;28;20194;-77
2021/11/21 06:28:25;;;;;;;12.33;5.07;;;9.90;99.90;;;;;;8378689;28;20629;-77
2021/11/21 06:32:26;;;;;;;7.10;4.07;;;9.90;99.90;;;;;;8362961;28;20459;-78
2021/11/21 06:36:26;;;;;;;12.67;3.43;;;9.90;99.90;;;;;;8364466;28;22295;-79
2021/11/21 06:40:27;;;;;;;5.63;3.23;;;9.90;99.90;;;;;;8380205;28;20221;-78
2021/11/21 06:44:28;;;;;;;7.13;4.10;;;9.90;99.90;;;;;;8380328;28;20269;-77
2021/11/21 06:48:29;;;;;;;3.97;2.90;;;9.90;99.90;;;;;;8380722;28;20332;-78
2021/11/21 06:52:31;;;;;;;3.87;2.60;;;9.90;99.90;;;;;;8359359;28;20923;-78
2021/11/21 06:56:32;;;;;;;8.00;4.97;;;10.00;99.90;;;;;;8382691;28;20197;-77
2021/11/21 07:00:32;;;;;;;5.40;4.07;;;10.00;99.90;;;;;;8386793;28;20510;-77
2021/11/21 07:04:33;;;;;;;5.10;3.57;;;10.10;99.90;;;;;;8382838;28;20273;-77
2021/11/21 07:08:34;;;;;;;6.83;4.40;;;10.10;99.90;;;;;;8355175;28;20240;-77
2021/11/21 07:12:34;;;;;;;6.20;4.27;;;10.10;99.90;;;;;;8358510;28;20183;-77
2021/11/21 07:16:35;;;;;;;6.13;3.73;;;10.00;99.90;;;;;;8371385;28;20186;-78
2021/11/21 07:20:36;;;;;;;4.10;2.80;;;10.00;99.90;;;;;;8394205;28;20221;-77
2021/11/21 07:24:36;;;;;;;4.57;3.30;;;10.00;99.90;;;;;;8382153;28;20713;-77
2021/11/21 07:28:37;;;;;;;9.60;3.80;;;10.00;99.90;;;;;;8388908;28;20267;-78
2021/11/21 07:32:38;;;;;;;5.53;3.47;;;10.00;99.90;;;;;;8370854;28;20247;-77
2021/11/21 07:36:39;;;;;;;9.30;3.60;;;10.00;99.90;;;;;;8388059;28;20510;-77
2021/11/21 07:40:39;;;;;;;5.67;3.73;;;10.10;99.90;;;;;;8382433;28;20296;-78
2021/11/21 07:44:40;;;;;;;4.70;2.97;;;10.00;99.90;;;;;;8387112;28;20210;-77
2021/11/21 07:48:41;;;;;;;3.00;2.63;;;10.10;99.90;;;;;;8381091;28;20194;-78
2021/11/21 07:52:42;;;;;;;6.17;2.50;;;10.10;99.90;;;;;;8367552;28;20190;-78
2021/11/21 07:56:43;;;;;;;9.97;3.43;;;10.20;99.90;;;;;;8370085;28;20183;-78
2021/11/21 08:00:44;;;;;;;4.23;2.80;;;10.30;99.90;;;;;;8387789;28;20531;-78
2021/11/21 08:04:44;;;;;;;5.90;2.70;;;10.40;99.90;;;;;;8374005;28;20218;-77
2021/11/21 08:08:45;;;;;;;2.90;1.87;;;10.50;99.90;;;;;;8388733;28;20319;-78
2021/11/21 08:12:46;;;;;;;3.73;2.60;;;10.60;99.90;;;;;;8360051;28;20283;-76
2021/11/21 08:16:47;;;;;;;6.10;4.00;;;10.60;99.70;;;;;;8371474;28;20266;-75
2021/11/21 08:20:49;;;;;;;4.10;2.53;;;10.60;99.40;;;;;;8382731;28;21000;-76
2021/11/21 08:24:51;;;;;;;5.57;3.40;;;10.60;99.30;;;;;;8385745;28;20245;-75
2021/11/21 08:28:51;;;;;;;3.70;2.80;;;10.60;99.30;;;;;;8375539;28;21257;-78
2021/11/21 08:32:52;;;;;;;2.97;2.50;;;10.60;99.30;;;;;;8366354;28;20584;-78
2021/11/21 08:36:53;;;;;;;5.93;3.33;;;10.70;99.30;;;;;;8365157;28;20198;-77
2021/11/21 08:40:54;;;;;;;6.07;4.73;;;10.80;99.30;;;;;;8388496;28;20214;-77
2021/11/21 08:44:54;;;;;;;6.17;4.20;;;10.80;99.20;;;;;;8388726;28;20187;-77
2021/11/21 08:48:55;;;;;;;6.07;3.80;;;10.90;98.90;;;;;;8386348;28;20506;-77
2021/11/21 08:52:56;;;;;;;6.40;5.23;;;11.00;98.90;;;;;;8411934;28;20448;-77
2021/11/21 08:56:56;;;;;;;5.13;3.93;;;11.10;98.80;;;;;;8404291;28;20194;-77
2021/11/21 09:00:57;;;;;;;3.97;3.40;;;11.10;98.70;;;;;;8382750;28;23308;-77
2021/11/21 09:04:58;;;;;;;3.50;2.50;;;11.20;98.60;;;;;;8360151;28;20234;-78
2021/11/21 09:08:58;;;;;;;3.33;1.90;;;11.20;98.40;;;;;;8365972;28;20719;-78
2021/11/21 09:12:59;;;;;;;4.80;3.17;;;11.20;98.20;;;;;;8381877;28;20186;-78
2021/11/21 09:17:01;;;;;;;4.00;3.10;;;11.20;98.00;;;;;;8375138;28;20197;-79
2021/11/21 09:21:02;;;;;;;3.63;3.33;;;11.10;98.00;;;;;;8382039;28;20301;-78
2021/11/21 09:25:04;;;;;;;5.00;2.60;;;11.10;98.10;;;;;;8387191;28;20536;-78
2021/11/21 09:29:05;;;;;;;3.20;2.67;;;11.10;98.00;;;;;;8386792;28;20441;-78
2021/11/21 09:33:06;;;;;;;2.90;2.73;;;11.10;98.10;;;;;;8388628;28;20448;-77
2021/11/21 09:37:07;;;;;;;3.50;2.63;;;11.10;98.10;;;;;;8391160;28;20856;-77
2021/11/21 09:41:08;;;;;;;3.70;2.40;;;11.10;98.20;;;;;;8371889;28;20667;-77
2021/11/21 09:45:11;;;;;;;4.70;3.67;;;11.10;98.30;;;;;;8379594;28;20498;-77
2021/11/21 09:49:15;;;;;;;4.53;3.20;;;11.10;98.50;;;;;;8362302;28;20681;-76
2021/11/21 09:53:15;;;;;;;3.20;2.90;;;11.00;99.00;;;;;;8364955;28;20530;-77
2021/11/21 09:57:16;;;;;;;4.90;3.97;;;10.90;99.50;;;;;;8347057;28;20441;-77
2021/11/21 10:01:41;;;;;;;5.33;4.33;;;10.80;99.90;;;;;;8358485;28;21934;-76
2021/11/21 10:05:51;;;;;;;7.43;4.60;;;10.70;99.90;;;;;;8361482;28;20254;-76
2021/11/21 10:09:53;;;;;;;7.40;4.00;;;10.60;99.90;;;;;;8348342;28;20449;-77
2021/11/21 10:14:01;;;;;;;6.37;4.87;;;10.60;99.90;;;;;;8387715;28;20475;-77
2021/11/21 10:18:02;;;;;;;5.03;4.37;;;10.70;99.90;;;;;;8386479;28;20536;-78
2021/11/21 10:22:03;;;;;;;5.80;3.97;;;10.70;99.90;;;;;;8370656;28;20472;-77
2021/11/21 10:26:04;;;;;;;7.00;4.60;;;10.80;99.90;;;;;;8352362;28;20189;-78
2021/11/21 10:30:05;;;;;;;8.57;5.00;;;10.90;99.90;;;;;;8348867;28;20477;-78
2021/11/21 10:34:05;;;;;;;3.80;3.07;;;10.90;99.90;;;;;;8351465;28;20742;-76
2021/11/21 10:38:06;;;;;;;6.67;4.10;;;11.00;99.90;;;;;;8353533;28;20445;-78
2021/11/21 10:42:07;;;;;;;6.37;3.77;;;11.00;99.90;;;;;;8372440;28;20752;-77
2021/11/21 10:46:21;;;;;;;5.37;3.97;;;11.00;99.90;;;;;;8352452;28;20210;-77
2021/11/21 10:50:40;;;;;;;3.73;3.27;;;10.90;99.90;;;;;;8352634;28;20189;-77
2021/11/21 10:54:46;;;;;;;7.43;3.77;;;10.80;99.90;;;;;;8356949;28;20552;-78
2021/11/21 10:58:50;;;;;;;4.03;3.30;;;10.70;99.90;;;;;;8353284;28;21269;-78
2021/11/21 11:02:51;;;;;;;6.13;3.43;;;10.60;99.90;;;;;;8368137;28;20496;-77
2021/11/21 11:06:52;;;;;;;5.77;3.57;;;10.60;99.90;;;;;;8370480;28;20476;-77
2021/11/21 11:10:53;;;;;;;6.10;3.90;;;10.60;99.90;;;;;;8349977;28;21307;-77
2021/11/21 11:14:56;;;;;;;8.67;6.07;;;10.60;99.90;;;;;;8363825;28;20574;-78
2021/11/21 11:18:58;;;;;;;7.80;5.87;;;10.60;99.90;;;;;;8368338;28;20449;-78
2021/11/21 11:22:58;;;;;;;7.90;4.33;;;10.60;99.90;;;;;;8371229;28;20473;-77
2021/11/21 11:27:35;;;;;;;10.47;5.17;;;10.60;99.90;;;;;;8374311;28;20445;-78
2021/11/21 11:31:37;;;;;;;7.60;3.80;;;10.50;99.90;;;;;;8371587;28;20175;-77
2021/11/21 11:35:43;;;;;;;11.57;6.00;;;10.50;99.90;;;;;;8353706;28;20449;-77
2021/11/21 11:39:44;;;;;;;9.90;7.03;;;10.60;99.90;;;;;;8375369;28;20437;-78
2021/11/21 11:43:53;;;;;;;10.17;5.70;;;10.70;99.90;;;;;;8373153;28;20961;-79
2021/11/21 11:47:54;;;;;;;15.70;5.70;;;10.80;99.90;;;;;;8351299;28;21066;-77
2021/11/21 11:51:55;;;;;;;11.80;5.50;;;10.80;99.90;;;;;;8351479;28;20463;-78
2021/11/21 11:56:20;;;;;;;15.87;5.60;;;10.80;99.90;;;;;;8364724;28;20191;-77
2021/11/21 12:00:34;;;;;;;11.60;5.17;;;10.80;99.90;;;;;;8359410;28;20472;-77
2021/11/21 12:04:36;;;;;;;9.20;5.47;;;10.80;99.90;;;;;;8383639;28;20468;-78
2021/11/21 12:08:42;;;;;;;11.50;5.83;;;10.70;99.90;;;;;;8393723;28;20795;-79
2021/11/21 12:12:52;;;;;;;10.20;6.27;;;10.80;99.90;;;;;;8381878;28;20452;-79
2021/11/21 12:16:59;;;;;;;10.70;6.17;;;10.80;99.90;;;;;;8374186;28;20502;-79
2021/11/21 12:21:00;;;;;;;16.33;7.80;;;10.70;99.90;;;;;;8353487;28;20473;-78
2021/11/21 12:25:02;;;;;;;9.10;5.63;;;10.70;99.90;;;;;;8374231;28;20449;-79
2021/11/21 12:29:15;;;;;;;15.47;7.90;;;10.70;99.90;;;;;;8386251;28;20437;-79
2021/11/21 12:33:23;;;;;;;12.47;8.57;;;10.70;99.90;;;;;;8384312;28;20484;-79
2021/11/21 12:37:29;;;;;;;14.33;9.07;;;10.70;99.90;;;;;;8382356;28;20437;-77
2021/11/21 12:41:31;;;;;;;17.73;9.07;;;10.70;99.90;;;;;;8360460;28;20516;-79
2021/11/21 12:45:55;;;;;;;20.40;8.30;;;10.70;99.90;;;;;;8356035;28;20434;-77
2021/11/21 12:49:55;;;;;;;16.00;8.43;;;10.70;99.90;;;;;;8377738;28;20521;-79
2021/11/21 12:53:56;;;;;;;15.53;8.70;;;10.60;99.90;;;;;;8380594;28;20472;-78
2021/11/21 12:57:59;;;;;;;18.37;8.70;;;10.60;99.90;;;;;;8380972;28;20201;-78
2021/11/21 13:02:03;;;;;;;21.73;9.90;;;10.60;99.90;;;;;;8360090;28;20472;-79
2021/11/21 13:06:10;;;;;;;20.87;9.63;;;10.70;99.90;;;;;;8371641;28;20484;-78
2021/11/21 13:10:15;;;;;;;16.07;8.93;;;10.70;99.90;;;;;;8395691;28;20435;-81
2021/11/21 13:14:15;;;;;;;18.37;8.33;;;10.70;99.90;;;;;;8370942;28;20463;-79
2021/11/21 13:18:20;;;;;;;16.00;8.87;;;10.60;99.90;;;;;;3535302;28;10002013;-79
2021/11/21 13:22:21;;;;;;;13.33;7.30;;;10.60;99.90;;;;;;8370472;28;20496;-78
2021/11/21 13:26:23;;;;;;;17.33;8.90;;;10.60;99.90;;;;;;8361518;28;20439;-78
2021/11/21 13:30:24;;;;;;;17.33;10.33;;;10.60;99.90;;;;;;8355556;28;20264;-78
2021/11/21 13:34:26;;;;;;;21.13;9.07;;;10.60;99.90;;;;;;8371853;28;20440;-77
2021/11/21 13:38:32;;;;;;;16.00;8.40;;;10.60;99.90;;;;;;8381534;28;20534;-78
2021/11/21 13:42:33;;;;;;;17.83;7.30;;;10.60;99.90;;;;;;8364092;28;20473;-78
2021/11/21 13:46:37;;;;;;;18.67;8.70;;;10.60;99.90;;;;;;8371603;28;20460;-78
2021/11/21 13:50:38;;;;;;;15.53;7.80;;;10.50;99.90;;;;;;8392406;28;20179;-77
2021/11/21 13:54:46;;;;;;;18.47;9.83;;;10.50;99.90;;;;;;8387401;28;20440;-79
2021/11/21 13:58:48;;;;;;;14.90;9.13;;;10.50;99.90;;;;;;8398723;28;20194;-78
2021/11/21 14:02:48;;;;;;;21.13;10.30;;;10.50;99.90;;;;;;8375765;28;20481;-78
2021/11/21 14:06:49;;;;;;;18.13;7.90;;;10.50;99.90;;;;;;8381144;28;20551;-79
2021/11/21 14:10:51;;;;;;;16.00;9.40;;;10.50;99.90;;;;;;8379291;28;20194;-77
2021/11/21 14:15:06;;;;;;;22.07;10.30;;;10.50;99.90;;;;;;8368338;28;20195;-79
2021/11/21 14:19:07;;;;;;;22.07;10.43;;;10.50;99.90;;;;;;8387506;28;20550;-78
2021/11/21 14:23:13;;;;;;;23.40;10.90;;;10.50;99.90;;;;;;8360899;28;20492;-78
2021/11/21 14:27:22;;;;;;;21.00;8.90;;;10.50;99.90;;;;;;8366972;28;20669;-79
2021/11/21 14:31:32;;;;;;;14.83;9.33;;;10.50;99.90;;;;;;8392408;28;20457;-79
2021/11/21 14:35:41;;;;;;;25.80;9.00;;;10.50;99.90;;;;;;8393450;28;20793;-79
2021/11/21 14:39:42;;;;;;;16.67;8.60;;;10.50;99.90;;;;;;8402052;28;20432;-79
2021/11/21 14:43:45;;;;;;;21.10;8.40;;;10.50;99.90;;;;;;8369130;28;20475;-79
2021/11/21 14:47:46;;;;;;;17.37;8.20;;;10.60;99.90;;;;;;8381409;28;20193;-78
2021/11/21 14:51:47;;;;;;;21.37;10.00;;;10.50;99.90;;;;;;8393831;28;20450;-79
2021/11/21 14:55:58;;;;;;;21.87;9.07;;;10.50;99.90;;;;;;8373171;28;20667;-79
2021/11/21 14:59:59;;;;;;;20.03;8.40;;;10.50;99.90;;;;;;8397990;28;20179;-78
2021/11/21 15:04:01;;;;;;;14.17;8.30;;;10.50;99.90;;;;;;8395935;28;20518;-78
2021/11/21 15:08:02;;;;;;;18.03;8.80;;;10.50;99.90;;;;;;8380715;28;20183;-79
2021/11/21 15:12:02;;;;;;;16.20;7.23;;;10.50;99.90;;;;;;8398780;28;20459;-78
2021/11/21 15:16:03;;;;;;;25.00;9.57;;;10.50;99.90;;;;;;8394411;28;20178;-79
2021/11/21 15:20:06;;;;;;;18.03;9.67;;;10.40;99.90;;;;;;8402456;28;20553;-78
2021/11/21 15:24:07;;;;;;;19.60;8.73;;;10.40;99.90;;;;;;8392213;28;20464;-78
2021/11/21 15:28:08;;;;;;;15.77;8.53;;;10.40;99.90;;;;;;8377262;28;20451;-78
2021/11/21 15:32:09;;;;;;;13.70;8.10;;;10.40;99.90;;;;;;8401008;28;20199;-79
2021/11/21 15:36:10;;;;;;;14.80;8.43;;;10.40;99.90;;;;;;8396426;28;20175;-79
2021/11/21 15:40:11;;;;;;;14.33;8.10;;;10.40;99.90;;;;;;8396034;28;21500;-78
2021/11/21 15:44:12;;;;;;;19.77;9.90;;;10.40;99.90;;;;;;8400202;28;20475;-78
2021/11/21 15:48:13;;;;;;;21.10;10.27;;;10.30;99.90;;;;;;8382310;28;21207;-78
2021/11/21 15:52:13;;;;;;;18.17;9.30;;;10.40;99.90;;;;;;8383211;28;20189;-78
2021/11/21 15:56:15;;;;;;;14.40;7.93;;;10.30;99.90;;;;;;8387498;28;20195;-77
2021/11/21 16:00:19;;;;;;;18.43;9.50;;;10.30;99.90;;;;;;8369398;28;20571;-79
2021/11/21 16:04:20;;;;;;;24.47;10.63;;;10.30;99.90;;;;;;8398844;28;20500;-79
2021/11/21 16:08:20;;;;;;;17.03;9.27;;;10.30;99.90;;;;;;8383703;28;20467;-78
2021/11/21 16:12:21;;;;;;;20.70;9.47;;;10.20;99.90;;;;;;8344485;28;20255;-78
2021/11/21 16:16:21;;;;;;;19.60;9.70;;;10.20;99.90;;;;;;8383174;28;20233;-78
2021/11/21 16:20:23;;;;;;;18.13;10.03;;;10.10;99.90;;;;;;8373577;28;20288;-77
2021/11/21 16:24:24;;;;;;;18.77;8.60;;;10.10;99.90;;;;;;8353776;28;20250;-78
2021/11/21 16:28:26;;;;;;;21.50;9.87;;;10.10;99.90;;;;;;8369622;28;20838;-79
2021/11/21 16:32:26;;;;;;;23.47;8.93;;;10.10;99.90;;;;;;8382176;28;20692;-79
2021/11/21 16:36:27;;;;;;;24.97;9.23;;;10.00;99.90;;;;;;8381867;28;20443;-78
2021/11/21 16:40:28;;;;;;;20.60;8.23;;;10.00;99.90;;;;;;8379879;28;20201;-78
2021/11/21 16:44:30;;;;;;;20.10;9.00;;;10.00;99.90;;;;;;8370375;28;20193;-77
2021/11/21 16:48:30;;;;;;;20.37;8.27;;;10.00;99.90;;;;;;8381300;28;20243;-79
2021/11/21 16:52:31;;;;;;;24.33;10.43;;;10.00;99.90;;;;;;8362901;28;20450;-79
2021/11/21 16:56:33;;;;;;;15.97;8.73;;;10.00;99.90;;;;;;8365991;28;20193;-78
2021/11/21 17:00:36;;;;;;;25.47;10.27;;;10.00;99.90;;;;;;8353661;28;20201;-80
2021/11/21 17:04:36;;;;;;;18.43;9.27;;;10.00;99.90;;;;;;8364954;28;20539;-76
2021/11/21 17:08:37;;;;;;;19.90;8.87;;;10.00;99.90;;;;;;8364020;28;20456;-76
2021/11/21 17:12:39;;;;;;;23.90;11.07;;;10.00;99.90;;;;;;8352532;28;20197;-76
2021/11/21 17:16:40;;;;;;;22.57;11.43;;;10.00;99.90;;;;;;8357575;28;20182;-76
2021/11/21 17:20:41;;;;;;;22.83;8.53;;;9.90;99.90;;;;;;8355510;28;20490;-76
2021/11/21 17:24:42;;;;;;;17.93;9.00;;;9.90;99.90;;;;;;8379015;28;21611;-80
2021/11/21 17:28:42;;;;;;;23.93;10.20;;;9.90;99.90;;;;;;8384824;28;20558;-78
2021/11/21 17:32:48;;;;;;;32.90;9.63;;;9.80;99.90;;;;;;8388458;28;20238;-79
2021/11/21 17:36:49;;;;;;;18.00;8.57;;;9.70;99.90;;;;;;8382011;28;20177;-78
2021/11/21 17:40:50;;;;;;;14.60;7.40;;;9.70;99.90;;;;;;8380549;28;20471;-79
2021/11/21 17:44:51;;;;;;;25.80;8.30;;;9.60;99.90;;;;;;8390269;28;20475;-79
2021/11/21 17:48:52;;;;;;;12.33;6.53;;;9.60;99.90;;;;;;8387725;28;20212;-78
2021/11/21 17:52:53;;;;;;;19.63;7.70;;;9.50;99.90;;;;;;8384590;28;20213;-78
2021/11/21 17:56:54;;;;;;;9.80;5.13;;;9.40;99.90;;;;;;8381129;28;20942;-77
2021/11/21 18:00:56;;;;;;;9.87;4.77;;;9.30;99.90;;;;;;8372019;28;20221;-79
2021/11/21 18:04:59;;;;;;;10.50;4.23;;;9.30;99.90;;;;;;8371038;28;20480;-79
2021/11/21 18:09:00;;;;;;;12.00;4.43;;;9.20;99.90;;;;;;8366174;28;21468;-79
2021/11/21 18:13:01;;;;;;;7.73;4.07;;;9.20;99.90;;;;;;8363938;28;20460;-78
2021/11/21 18:17:03;;;;;;;8.07;4.23;;;9.20;99.90;;;;;;8364168;28;20928;-78
2021/11/21 18:21:04;;;;;;;5.70;4.20;;;9.20;99.90;;;;;;8338135;28;20614;-79
2021/11/21 18:25:06;;;;;;;4.10;3.80;;;9.10;99.90;;;;;;8342940;28;20501;-78
2021/11/21 18:29:06;;;;;;;15.10;5.20;;;9.10;99.90;;;;;;8346884;28;20205;-79
2021/11/21 18:33:07;;;;;;;5.23;4.73;;;9.10;99.90;;;;;;8367716;28;20457;-77
2021/11/21 18:37:08;;;;;;;16.67;7.40;;;9.00;99.90;;;;;;8358332;28;20279;-78
2021/11/21 18:41:09;;;;;;;40.90;20.20;;;9.00;99.90;;;;;;8380966;28;20487;-77
2021/11/21 18:45:09;;;;;;;19.80;11.03;;;9.00;99.90;;;;;;8377548;28;20218;-78
2021/11/21 18:49:10;;;;;;;36.80;19.30;;;9.00;99.90;;;;;;8374971;28;20186;-79
2021/11/21 18:53:12;;;;;;;25.03;8.13;;;9.00;99.90;;;;;;8366224;28;20201;-77
2021/11/21 18:57:15;;;;;;;20.83;10.60;;;9.00;99.90;;;;;;8383328;28;20193;-78
2021/11/21 19:01:22;;;;;;;44.47;21.10;;;9.00;99.90;;;;;;8367476;28;20475;-79
2021/11/21 19:05:25;;;;;;;31.73;17.50;;;9.00;99.90;;;;;;8381856;28;20503;-78
2021/11/21 19:09:26;;;;;;;173.03;69.50;;;9.00;99.90;;;;;;8377073;28;20448;-78
2021/11/21 19:13:27;;;;;;;35.03;11.97;;;8.90;99.90;;;;;;8358094;28;21439;-77
2021/11/21 19:17:27;;;;;;;23.63;9.77;;;8.90;99.90;;;;;;8385084;28;20212;-79
2021/11/21 19:21:28;;;;;;;34.40;19.50;;;8.90;99.90;;;;;;8372184;28;20221;-79
2021/11/21 19:25:31;;;;;;;17.13;11.27;;;8.80;99.90;;;;;;8369417;28;20186;-80
2021/11/21 19:29:33;;;;;;;27.27;17.00;;;8.80;99.90;;;;;;8392405;28;20968;-79
2021/11/21 19:33:34;;;;;;;22.97;14.00;;;8.80;99.90;;;;;;8382265;28;20542;-78
2021/11/21 19:37:35;;;;;;;36.57;19.73;;;8.70;99.90;;;;;;8384417;28;20438;-80
2021/11/21 19:41:37;;;;;;;19.13;10.40;;;8.70;99.90;;;;;;8381407;28;20296;-78
2021/11/21 19:45:39;;;;;;;15.00;9.40;;;8.70;99.90;;;;;;8393380;28;20478;-79
2021/11/21 19:49:40;;;;;;;31.30;16.87;;;8.70;99.90;;;;;;8385798;28;20538;-79
2021/11/21 19:53:42;;;;;;;19.20;8.90;;;8.70;99.90;;;;;;8366168;28;20452;-80
2021/11/21 19:57:44;;;;;;;8.40;6.17;;;8.60;99.90;;;;;;8382480;28;20213;-80
2021/11/21 20:01:45;;;;;;;16.53;7.73;;;8.70;99.90;;;;;;8377205;28;20828;-77
2021/11/21 20:05:45;;;;;;;14.97;7.23;;;8.60;99.90;;;;;;8369853;28;20490;-78
2021/11/21 20:09:46;;;;;;;17.07;8.80;;;8.60;99.90;;;;;;8373707;28;20195;-78
2021/11/21 20:13:51;;;;;;;11.97;8.47;;;8.60;99.90;;;;;;8363791;28;20198;-78
2021/11/21 20:17:53;;;;;;;11.90;9.00;;;8.60;99.90;;;;;;8369268;28;20197;-79
2021/11/21 20:21:53;;;;;;;31.33;14.57;;;8.60;99.90;;;;;;8382899;28;20541;-80
2021/11/21 20:25:54;;;;;;;30.43;13.57;;;8.60;99.90;;;;;;8373581;28;20455;-78
2021/11/21 20:29:55;;;;;;;23.63;13.23;;;8.50;99.90;;;;;;8372133;28;20193;-78
2021/11/21 20:38:15;;;;;;;20.30;10.77;;;8.50;99.90;;;;;;8391964;28;20442;-79
2021/11/21 20:42:17;;;;;;;14.47;9.43;;;8.40;99.90;;;;;;8400807;28;20491;-79
2021/11/21 20:46:17;;;;;;;13.53;8.27;;;8.30;99.90;;;;;;8381042;28;21795;-79
2021/11/21 20:50:21;;;;;;;21.50;7.80;;;8.30;99.90;;;;;;8400132;28;20472;-79
2021/11/21 20:54:23;;;;;;;15.77;9.10;;;8.30;99.90;;;;;;8397344;28;20238;-78
2021/11/21 20:58:23;;;;;;;11.67;8.47;;;8.30;99.90;;;;;;8393653;28;20447;-78